Time;durP1;ratioP1;P1;durP2;ratioP2;P2;SDS_P1;SDS_P2;PMS_P1;PMS_P2;Temp;Humidity;BMP_temperature;BMP_pressure;BME280_temperature;BME280_humidity;BME280_pressure;Samples;Min_cycle;Max_cycle;Signal;HPM_P1;HPM_P2
2021/09/21 00:01:30;;;;;;;6.73;5.63;;;16.90;1.00;;;;;;5011266;28;20478;-78
2021/09/21 00:03:59;;;;;;;8.77;6.60;;;16.90;1.00;;;;;;5013165;28;20466;-77
2021/09/21 00:06:27;;;;;;;7.07;6.37;;;17.00;1.00;;;;;;5014068;28;20454;-75
2021/09/21 00:08:56;;;;;;;6.50;5.80;;;16.90;1.00;;;;;;5012185;28;20513;-79
2021/09/21 00:11:24;;;;;;;6.83;5.80;;;17.00;1.00;;;;;;5012540;28;20468;-79
2021/09/21 00:13:52;;;;;;;7.77;5.70;;;16.90;1.00;;;;;;5014298;28;20456;-78
2021/09/21 00:16:21;;;;;;;9.50;6.10;;;16.80;1.00;;;;;;5011003;28;20451;-76
2021/09/21 00:18:49;;;;;;;7.73;6.03;;;16.80;1.00;;;;;;5010783;28;20545;-77
2021/09/21 00:21:17;;;;;;;7.30;6.60;;;16.70;1.00;;;;;;5010051;28;20535;-77
2021/09/21 00:23:45;;;;;;;6.37;5.77;;;16.70;1.00;;;;;;5011883;28;20464;-78
2021/09/21 00:26:14;;;;;;;6.23;5.60;;;16.70;1.00;;;;;;5012658;28;20483;-77
2021/09/21 00:28:43;;;;;;;6.10;5.50;;;16.70;1.00;;;;;;5007342;28;20456;-78
2021/09/21 00:31:11;;;;;;;5.87;5.03;;;16.80;1.00;;;;;;5009825;28;20526;-79
2021/09/21 00:33:49;;;;;;;8.80;6.50;;;16.80;1.00;;;;;;5007865;28;20951;-77
2021/09/21 00:36:17;;;;;;;5.63;5.03;;;16.80;1.00;;;;;;5010279;28;20479;-78
2021/09/21 00:38:46;;;;;;;5.40;4.90;;;16.90;1.00;;;;;;5009686;28;20545;-78
2021/09/21 00:41:15;;;;;;;6.60;5.60;;;16.80;1.00;;;;;;5011914;28;20473;-77
2021/09/21 00:43:47;;;;;;;5.33;4.73;;;16.70;1.00;;;;;;5005701;28;20487;-77
2021/09/21 00:46:15;;;;;;;5.10;4.70;;;16.60;1.00;;;;;;5010174;28;20456;-78
2021/09/21 00:48:43;;;;;;;5.73;5.00;;;16.70;1.00;;;;;;5026584;28;20846;-77
2021/09/21 00:51:11;;;;;;;5.43;4.93;;;16.70;1.00;;;;;;5013280;28;20798;-78
2021/09/21 00:53:39;;;;;;;5.13;4.63;;;16.60;1.00;;;;;;5012880;28;20455;-77
2021/09/21 00:56:07;;;;;;;6.00;5.40;;;16.70;1.00;;;;;;5013450;28;21068;-78
2021/09/21 00:58:37;;;;;;;6.40;5.80;;;16.80;1.00;;;;;;5012902;28;20862;-78
2021/09/21 01:01:05;;;;;;;6.20;5.60;;;16.80;1.00;;;;;;5010638;28;20481;-78
2021/09/21 01:03:34;;;;;;;6.40;4.97;;;16.80;1.00;;;;;;5010717;28;20495;-78
2021/09/21 01:06:02;;;;;;;6.50;5.23;;;16.80;1.00;;;;;;5012673;28;20983;-78
2021/09/21 01:08:31;;;;;;;7.03;5.73;;;16.80;1.00;;;;;;5008756;28;20462;-78
2021/09/21 01:10:59;;;;;;;9.57;6.37;;;16.70;1.00;;;;;;5005359;28;20475;-79
2021/09/21 01:13:27;;;;;;;5.37;4.87;;;16.70;1.00;;;;;;5013230;28;20459;-79
2021/09/21 01:15:56;;;;;;;5.87;5.37;;;16.80;1.00;;;;;;5028614;28;20460;-79
2021/09/21 01:18:27;;;;;;;5.73;4.60;;;16.80;1.00;;;;;;5010239;28;20494;-79
2021/09/21 01:21:02;;;;;;;5.93;5.37;;;16.80;1.00;;;;;;5012863;28;20467;-78
2021/09/21 01:23:32;;;;;;;7.63;6.23;;;16.70;1.00;;;;;;5013526;28;20857;-78
2021/09/21 01:26:00;;;;;;;7.20;5.73;;;16.60;1.00;;;;;;5015449;28;20846;-78
2021/09/21 01:28:28;;;;;;;8.50;6.37;;;16.60;1.00;;;;;;5029902;28;20490;-79
2021/09/21 01:30:56;;;;;;;7.33;5.90;;;16.70;1.00;;;;;;5014488;28;20463;-78
2021/09/21 01:33:24;;;;;;;5.73;5.13;;;16.70;1.00;;;;;;5012091;28;20865;-78
2021/09/21 01:35:52;;;;;;;6.43;5.83;;;16.70;1.00;;;;;;5011840;28;20526;-78
2021/09/21 01:38:20;;;;;;;6.63;5.67;;;16.70;1.00;;;;;;5012229;28;20982;-78
2021/09/21 01:40:50;;;;;;;6.20;5.60;;;16.70;1.00;;;;;;5011388;28;20487;-78
2021/09/21 01:43:18;;;;;;;6.07;5.60;;;16.70;1.00;;;;;;5011999;28;20455;-78
2021/09/21 01:45:46;;;;;;;7.53;5.50;;;16.70;1.00;;;;;;5013571;28;20456;-78
2021/09/21 01:48:14;;;;;;;6.00;5.40;;;16.60;1.00;;;;;;5015611;28;20521;-77
2021/09/21 01:50:46;;;;;;;10.70;6.20;;;16.70;1.00;;;;;;5013128;28;20454;-78
2021/09/21 01:53:22;;;;;;;6.90;6.20;;;16.70;1.00;;;;;;5016841;28;20464;-79
2021/09/21 01:58:50;;;;;;;8.17;6.47;;;16.70;1.00;;;;;;5009156;28;20526;-78
2021/09/21 02:01:20;;;;;;;6.13;5.43;;;16.70;1.00;;;;;;5007268;28;20477;-79
2021/09/21 02:03:49;;;;;;;8.00;6.60;;;16.70;1.00;;;;;;5008485;28;20464;-79
2021/09/21 02:06:18;;;;;;;6.67;5.93;;;16.70;1.00;;;;;;5010836;28;20491;-79
2021/09/21 02:08:46;;;;;;;7.17;6.10;;;16.60;1.00;;;;;;5005319;28;20452;-78
2021/09/21 02:11:16;;;;;;;6.80;6.10;;;16.70;1.00;;;;;;5003671;28;20497;-78
2021/09/21 02:13:44;;;;;;;6.60;5.77;;;16.60;99.90;;;;;;5009437;28;20506;-79
2021/09/21 02:16:13;;;;;;;6.73;6.03;;;16.60;1.00;;;;;;5006090;28;20466;-78
2021/09/21 02:18:41;;;;;;;8.23;7.07;;;16.60;99.90;;;;;;5005895;28;20480;-79
2021/09/21 02:21:09;;;;;;;8.00;6.20;;;16.60;99.90;;;;;;4993300;28;20506;-78
2021/09/21 02:23:37;;;;;;;7.70;6.90;;;16.60;99.90;;;;;;4999157;28;20495;-76
2021/09/21 02:26:05;;;;;;;6.20;5.50;;;16.40;1.00;;;;;;5009492;28;20515;-77
2021/09/21 02:28:35;;;;;;;7.20;6.50;;;16.50;1.00;;;;;;5008436;28;20482;-77
2021/09/21 02:31:03;;;;;;;8.17;6.50;;;16.50;1.00;;;;;;5008629;28;20850;-75
2021/09/21 02:33:31;;;;;;;8.43;6.30;;;16.60;1.00;;;;;;5008941;28;20995;-77
2021/09/21 02:35:59;;;;;;;6.97;6.33;;;16.60;1.00;;;;;;5010168;28;20459;-77
2021/09/21 02:38:28;;;;;;;7.90;6.57;;;16.50;1.00;;;;;;5009412;28;20476;-78
2021/09/21 02:40:56;;;;;;;7.63;6.67;;;16.50;1.00;;;;;;5008901;28;20454;-78
2021/09/21 02:43:24;;;;;;;7.90;6.27;;;16.40;1.00;;;;;;5007723;28;20990;-78
2021/09/21 02:45:53;;;;;;;6.33;5.73;;;16.50;1.00;;;;;;5006906;28;20509;-76
2021/09/21 02:48:21;;;;;;;6.57;5.70;;;16.40;1.00;;;;;;5007789;28;20589;-81
2021/09/21 02:50:49;;;;;;;6.03;5.43;;;16.30;1.00;;;;;;5006019;28;20467;-79
2021/09/21 02:53:17;;;;;;;8.03;6.30;;;16.30;1.00;;;;;;5009557;28;20510;-79
2021/09/21 02:55:46;;;;;;;7.60;6.30;;;16.30;1.00;;;;;;5008616;28;20463;-78
2021/09/21 02:58:14;;;;;;;8.83;7.30;;;16.30;1.00;;;;;;5002518;28;20526;-78
2021/09/21 03:00:43;;;;;;;7.13;6.40;;;16.30;1.00;;;;;;5007166;28;20468;-77
2021/09/21 03:03:13;;;;;;;7.10;5.93;;;16.30;1.00;;;;;;5006654;28;20447;-78
2021/09/21 03:05:43;;;;;;;12.10;6.77;;;16.30;1.00;;;;;;5008875;28;20455;-79
2021/09/21 03:08:14;;;;;;;6.47;5.87;;;16.30;1.00;;;;;;5009209;28;20469;-80
2021/09/21 03:10:52;;;;;;;7.00;6.30;;;16.40;1.00;;;;;;5005543;28;20969;-77
2021/09/21 03:13:28;;;;;;;7.23;5.87;;;16.30;1.00;;;;;;5008030;28;20989;-78
2021/09/21 03:18:43;;;;;;;7.97;6.37;;;16.30;1.00;;;;;;5004794;28;20463;-79
2021/09/21 03:21:11;;;;;;;6.87;6.17;;;16.20;1.00;;;;;;5007317;28;20553;-77
2021/09/21 03:23:39;;;;;;;8.20;6.13;;;16.20;1.00;;;;;;5024509;28;20493;-78
2021/09/21 03:26:07;;;;;;;7.37;6.63;;;16.20;1.00;;;;;;5008717;28;20450;-77
2021/09/21 03:28:36;;;;;;;7.00;5.33;;;16.10;1.00;;;;;;5010871;28;20446;-78
2021/09/21 03:31:04;;;;;;;7.40;5.90;;;16.20;1.00;;;;;;5021560;28;20471;-77
2021/09/21 03:33:32;;;;;;;6.70;6.10;;;16.10;1.00;;;;;;5010302;28;20517;-77
2021/09/21 03:36:02;;;;;;;6.20;5.57;;;16.10;1.00;;;;;;5010751;28;20548;-78
2021/09/21 03:38:30;;;;;;;7.43;5.60;;;16.30;1.00;;;;;;5011672;28;21038;-77
2021/09/21 03:40:58;;;;;;;6.30;5.63;;;16.30;1.00;;;;;;5010859;28;20532;-77
2021/09/21 03:43:26;;;;;;;6.67;6.07;;;16.30;1.00;;;;;;5013227;28;20443;-77
2021/09/21 03:45:54;;;;;;;7.20;6.00;;;16.40;99.90;;;;;;5025573;28;20517;-77
2021/09/21 03:48:22;;;;;;;5.90;5.27;;;16.40;1.00;;;;;;5010713;28;20819;-78
2021/09/21 03:50:50;;;;;;;10.97;7.07;;;16.40;1.00;;;;;;5013773;28;20450;-81
2021/09/21 03:53:20;;;;;;;5.70;4.87;;;16.30;1.00;;;;;;5018902;28;20550;-82
2021/09/21 03:55:48;;;;;;;8.20;6.20;;;16.30;1.00;;;;;;5019779;28;20470;-82
2021/09/21 03:58:16;;;;;;;8.30;6.03;;;16.30;1.00;;;;;;5017917;28;20826;-81
2021/09/21 04:00:44;;;;;;;7.80;6.10;;;16.30;1.00;;;;;;5018322;28;20487;-78
2021/09/21 04:03:13;;;;;;;5.50;5.00;;;16.30;1.00;;;;;;5018301;28;20445;-82
2021/09/21 04:05:42;;;;;;;6.60;5.90;;;16.30;1.00;;;;;;5022160;28;20450;-82
2021/09/21 04:08:10;;;;;;;6.90;6.20;;;16.20;1.00;;;;;;5035442;28;20462;-83
2021/09/21 04:10:39;;;;;;;7.60;5.47;;;16.30;1.00;;;;;;5012894;28;20466;-79
2021/09/21 04:13:07;;;;;;;7.23;6.37;;;16.30;1.00;;;;;;5015706;28;20471;-81
2021/09/21 04:15:35;;;;;;;9.03;6.07;;;16.40;1.00;;;;;;4995908;28;21143;-76
2021/09/21 04:18:05;;;;;;;7.77;6.13;;;16.40;1.00;;;;;;5007710;28;20467;-74
2021/09/21 04:20:33;;;;;;;6.63;5.60;;;16.40;1.00;;;;;;5010147;28;20487;-78
2021/09/21 04:23:01;;;;;;;6.57;5.40;;;16.40;1.00;;;;;;5011797;28;20498;-78
2021/09/21 04:25:30;;;;;;;9.93;5.43;;;16.40;1.00;;;;;;5010822;28;20470;-76
2021/09/21 04:28:00;;;;;;;6.43;5.87;;;16.40;1.00;;;;;;5008817;28;20463;-77
2021/09/21 04:30:28;;;;;;;10.00;7.00;;;16.40;1.00;;;;;;5009275;28;20482;-82
2021/09/21 04:32:57;;;;;;;7.03;6.33;;;16.30;99.90;;;;;;5008258;28;20478;-72
2021/09/21 04:35:25;;;;;;;6.60;5.20;;;16.20;1.00;;;;;;5007824;28;20459;-68
2021/09/21 04:37:53;;;;;;;6.77;5.80;;;16.00;1.00;;;;;;5010444;28;20459;-69
2021/09/21 04:40:21;;;;;;;5.93;5.30;;;15.80;1.00;;;;;;5011541;28;20535;-69
2021/09/21 04:42:49;;;;;;;6.20;5.50;;;15.70;1.00;;;;;;5009646;28;20517;-68
2021/09/21 04:45:19;;;;;;;8.40;6.90;;;15.50;1.00;;;;;;5003620;28;20449;-65
2021/09/21 04:47:47;;;;;;;8.07;6.90;;;15.40;1.00;;;;;;5010496;28;20453;-71
2021/09/21 04:50:15;;;;;;;8.47;7.20;;;15.30;1.00;;;;;;5008935;28;20509;-69
2021/09/21 04:52:43;;;;;;;7.30;5.67;;;15.30;1.00;;;;;;5006786;28;21068;-79
2021/09/21 04:55:11;;;;;;;11.50;7.10;;;15.30;1.00;;;;;;5011192;28;20458;-81
2021/09/21 04:57:40;;;;;;;13.57;8.40;;;15.40;1.00;;;;;;5010489;28;20517;-79
2021/09/21 05:00:08;;;;;;;7.53;6.23;;;15.60;1.00;;;;;;5010388;28;20487;-80
2021/09/21 05:02:38;;;;;;;6.43;5.63;;;15.70;1.00;;;;;;5000659;28;20477;-78
2021/09/21 05:05:08;;;;;;;7.60;5.90;;;15.80;1.00;;;;;;5008778;28;20463;-78
2021/09/21 05:07:37;;;;;;;8.73;6.80;;;15.90;1.00;;;;;;5007302;28;20490;-79
2021/09/21 05:10:06;;;;;;;7.10;5.83;;;15.90;1.00;;;;;;5006851;28;20449;-77
2021/09/21 05:12:34;;;;;;;7.23;6.53;;;16.00;1.00;;;;;;5009784;28;21028;-78
2021/09/21 05:15:03;;;;;;;8.33;6.70;;;16.10;1.00;;;;;;5013765;28;20985;-77
2021/09/21 05:17:31;;;;;;;7.50;6.60;;;16.00;1.00;;;;;;5014361;28;20981;-77
2021/09/21 05:20:01;;;;;;;6.07;5.33;;;15.90;1.00;;;;;;5012139;28;20447;-79
2021/09/21 05:22:29;;;;;;;7.13;5.67;;;15.90;1.00;;;;;;5009122;28;20540;-79
2021/09/21 05:24:57;;;;;;;7.00;6.30;;;16.00;99.90;;;;;;5024502;28;20860;-77
2021/09/21 05:27:26;;;;;;;7.30;6.60;;;15.90;99.90;;;;;;5011290;28;20493;-78
2021/09/21 05:29:54;;;;;;;7.07;6.37;;;15.90;99.90;;;;;;5011087;28;20454;-78
2021/09/21 05:32:22;;;;;;;8.03;6.20;;;15.90;99.90;;;;;;5011832;28;20501;-78
2021/09/21 05:34:50;;;;;;;8.00;6.67;;;15.90;99.90;;;;;;5011684;28;20456;-79
2021/09/21 05:37:19;;;;;;;6.97;6.27;;;15.90;99.90;;;;;;5011958;28;20500;-78
2021/09/21 05:39:47;;;;;;;7.77;6.50;;;15.80;99.90;;;;;;5010297;28;20467;-79
2021/09/21 05:42:16;;;;;;;7.93;6.40;;;15.80;99.90;;;;;;5008510;28;20541;-77
2021/09/21 05:44:44;;;;;;;6.80;6.10;;;15.90;99.90;;;;;;5008575;28;20513;-80
2021/09/21 05:47:12;;;;;;;6.77;6.10;;;15.90;99.90;;;;;;5005018;28;20876;-78
2021/09/21 05:49:40;;;;;;;8.13;6.73;;;15.80;99.90;;;;;;5004157;28;20779;-79
2021/09/21 05:52:08;;;;;;;7.60;6.80;;;15.80;99.90;;;;;;5007963;28;20465;-79
2021/09/21 05:54:38;;;;;;;8.57;6.47;;;15.80;99.90;;;;;;5025264;28;20516;-80
2021/09/21 05:57:06;;;;;;;7.83;6.33;;;15.70;99.90;;;;;;5010030;28;20603;-79
2021/09/21 05:59:34;;;;;;;6.80;6.07;;;15.80;99.90;;;;;;5010083;28;20540;-78
2021/09/21 06:02:03;;;;;;;6.33;5.60;;;15.80;99.90;;;;;;5007480;28;20535;-77
2021/09/21 06:04:33;;;;;;;7.33;6.10;;;15.70;99.90;;;;;;5014593;28;20454;-80
2021/09/21 06:07:02;;;;;;;6.77;6.17;;;15.70;99.90;;;;;;5009247;28;20459;-80
2021/09/21 06:09:30;;;;;;;6.70;6.00;;;15.70;99.90;;;;;;5010108;28;20461;-78
2021/09/21 06:11:59;;;;;;;7.23;5.30;;;15.70;99.90;;;;;;5009808;28;20458;-78
2021/09/21 06:14:28;;;;;;;7.43;6.47;;;15.70;99.90;;;;;;5011585;28;20953;-78
2021/09/21 06:16:56;;;;;;;7.03;6.33;;;15.80;99.90;;;;;;5011175;28;20513;-80
2021/09/21 06:19:24;;;;;;;7.10;6.40;;;15.70;99.90;;;;;;5009636;28;20505;-80
2021/09/21 06:21:53;;;;;;;7.00;6.27;;;15.70;99.90;;;;;;5010516;28;20502;-78
2021/09/21 06:24:21;;;;;;;6.40;5.80;;;15.70;99.90;;;;;;5011122;28;20796;-78
2021/09/21 06:26:50;;;;;;;6.37;5.80;;;15.80;99.90;;;;;;5011491;28;20999;-78
2021/09/21 06:29:19;;;;;;;7.20;6.27;;;15.90;99.90;;;;;;5010627;28;20443;-77
2021/09/21 06:31:47;;;;;;;6.67;5.97;;;15.90;99.90;;;;;;5010831;28;20484;-78
2021/09/21 06:34:15;;;;;;;5.57;5.07;;;15.90;99.90;;;;;;5013360;28;20967;-78
2021/09/21 06:36:43;;;;;;;7.73;5.70;;;16.00;99.90;;;;;;5010729;28;20469;-78
2021/09/21 06:39:12;;;;;;;7.83;6.20;;;16.00;99.90;;;;;;5010448;28;20520;-79
2021/09/21 06:41:40;;;;;;;6.57;6.03;;;16.00;99.90;;;;;;5008656;28;20499;-77
2021/09/21 06:44:08;;;;;;;7.17;5.80;;;16.10;99.90;;;;;;5010877;28;21033;-79
2021/09/21 06:46:38;;;;;;;8.40;6.10;;;16.10;99.90;;;;;;5009195;28;20464;-78
2021/09/21 06:49:06;;;;;;;6.70;5.67;;;16.10;99.90;;;;;;5009189;28;20459;-78
2021/09/21 06:51:34;;;;;;;6.33;5.70;;;16.10;99.90;;;;;;5007378;28;20491;-78
2021/09/21 06:54:02;;;;;;;6.47;5.60;;;16.10;99.90;;;;;;5011096;28;20669;-77
2021/09/21 06:56:30;;;;;;;7.07;5.57;;;16.20;99.90;;;;;;5007588;28;20452;-77
2021/09/21 06:58:59;;;;;;;7.40;6.00;;;16.20;99.90;;;;;;5007594;28;20501;-80
2021/09/21 07:01:28;;;;;;;5.97;5.27;;;16.30;99.90;;;;;;5008036;28;20490;-80
2021/09/21 07:03:58;;;;;;;6.07;5.57;;;16.40;99.90;;;;;;5010037;28;20493;-79
2021/09/21 07:06:26;;;;;;;5.40;4.90;;;16.40;99.90;;;;;;5009464;28;20581;-79
2021/09/21 07:08:55;;;;;;;6.97;5.93;;;16.40;99.90;;;;;;5010199;28;20446;-77
2021/09/21 07:11:23;;;;;;;8.63;4.93;;;16.50;99.90;;;;;;5008977;28;20828;-77
2021/09/21 07:13:51;;;;;;;6.20;5.60;;;16.50;99.90;;;;;;5010250;28;20444;-78
2021/09/21 07:16:20;;;;;;;6.47;5.60;;;16.50;99.90;;;;;;5007789;28;20546;-78
2021/09/21 07:18:49;;;;;;;7.67;5.40;;;16.60;99.90;;;;;;5007751;28;20898;-78
2021/09/21 07:21:19;;;;;;;5.50;5.00;;;16.60;99.90;;;;;;5005223;28;20518;-80
2021/09/21 07:23:48;;;;;;;5.03;4.63;;;16.60;99.90;;;;;;5010021;28;20469;-80
2021/09/21 07:26:17;;;;;;;5.73;5.00;;;16.60;99.90;;;;;;5009040;28;20857;-78
2021/09/21 07:28:45;;;;;;;5.20;4.80;;;16.60;99.90;;;;;;5009660;28;20842;-76
2021/09/21 07:31:15;;;;;;;5.33;4.83;;;16.70;99.90;;;;;;5007960;28;20654;-79
2021/09/21 07:33:44;;;;;;;4.73;4.30;;;16.70;99.90;;;;;;5008151;28;20448;-78
2021/09/21 07:36:12;;;;;;;6.53;5.50;;;16.70;99.90;;;;;;5008973;28;20459;-81
2021/09/21 07:38:42;;;;;;;10.00;5.60;;;16.70;99.90;;;;;;5013886;28;20479;-80
2021/09/21 07:41:10;;;;;;;6.63;5.57;;;16.70;99.90;;;;;;5008967;28;20840;-77
2021/09/21 07:43:39;;;;;;;5.10;4.70;;;16.80;99.90;;;;;;5007462;28;20459;-77
2021/09/21 07:46:08;;;;;;;5.63;5.20;;;16.80;99.90;;;;;;5008940;28;20534;-77
2021/09/21 07:48:37;;;;;;;8.10;5.73;;;16.80;99.90;;;;;;5005568;28;20700;-79
2021/09/21 07:51:08;;;;;;;6.80;4.80;;;16.90;99.90;;;;;;5008295;28;20480;-78
2021/09/21 07:53:37;;;;;;;38.33;20.20;;;16.90;99.90;;;;;;5009051;28;20543;-78
2021/09/21 07:56:06;;;;;;;16.97;10.07;;;16.80;99.90;;;;;;5007105;28;20472;-78
2021/09/21 07:58:50;;;;;;;5.87;5.27;;;16.80;99.90;;;;;;5006050;28;20464;-78
2021/09/21 08:01:18;;;;;;;8.77;5.77;;;16.80;99.90;;;;;;5007239;28;21009;-78
2021/09/21 08:03:47;;;;;;;5.40;4.90;;;16.90;99.90;;;;;;4991567;28;20452;-78
2021/09/21 08:06:16;;;;;;;5.10;4.60;;;17.00;99.90;;;;;;5006175;28;20457;-79
2021/09/21 08:08:44;;;;;;;5.90;5.40;;;17.00;99.90;;;;;;5008669;28;20467;-77
2021/09/21 08:11:13;;;;;;;6.40;5.80;;;17.10;99.90;;;;;;5007378;28;20487;-78
2021/09/21 08:13:42;;;;;;;5.37;4.87;;;17.10;99.90;;;;;;5008031;28;20448;-80
2021/09/21 08:16:15;;;;;;;4.93;4.47;;;17.20;99.90;;;;;;5005582;28;20522;-76
2021/09/21 08:18:44;;;;;;;5.40;4.60;;;17.30;99.90;;;;;;5010224;28;20486;-77
2021/09/21 08:21:13;;;;;;;6.50;5.87;;;17.30;99.90;;;;;;5009906;28;20522;-77
2021/09/21 08:23:41;;;;;;;5.20;4.80;;;17.40;99.90;;;;;;5012804;28;20857;-78
2021/09/21 08:26:10;;;;;;;5.63;5.13;;;17.30;99.90;;;;;;5011339;28;20543;-77
2021/09/21 08:28:42;;;;;;;5.40;4.90;;;17.40;99.90;;;;;;5010398;28;20464;-76
2021/09/21 08:31:11;;;;;;;6.57;5.27;;;17.40;99.90;;;;;;5007257;28;20484;-77
2021/09/21 08:33:39;;;;;;;6.07;5.30;;;17.40;99.90;;;;;;5009829;28;20468;-77
2021/09/21 08:36:22;;;;;;;5.20;4.70;;;17.50;99.90;;;;;;5012571;28;20456;-75
2021/09/21 08:38:51;;;;;;;6.50;4.87;;;17.70;99.90;;;;;;5010405;28;20457;-76
2021/09/21 08:41:20;;;;;;;5.80;5.30;;;17.80;99.90;;;;;;5010911;28;20499;-76
2021/09/21 08:43:50;;;;;;;4.93;4.10;;;17.90;99.90;;;;;;5008117;28;20492;-77
2021/09/21 08:46:19;;;;;;;7.23;6.43;;;18.00;99.90;;;;;;5010004;28;20458;-76
2021/09/21 08:48:48;;;;;;;5.60;4.93;;;18.10;99.90;;;;;;5008794;28;20539;-77
2021/09/21 08:51:16;;;;;;;6.20;5.63;;;18.10;99.90;;;;;;5011313;28;20786;-77
2021/09/21 08:53:44;;;;;;;6.20;5.60;;;18.20;99.90;;;;;;5011269;28;21019;-78
2021/09/21 08:56:13;;;;;;;6.40;5.80;;;18.20;99.90;;;;;;5009028;28;21116;-78
2021/09/21 08:58:41;;;;;;;7.03;5.10;;;18.20;99.90;;;;;;5007309;28;20445;-76
2021/09/21 09:01:12;;;;;;;4.80;4.40;;;18.30;99.90;;;;;;5014851;28;20801;-76
2021/09/21 09:03:41;;;;;;;4.93;4.43;;;18.40;99.90;;;;;;5011879;28;20481;-76
2021/09/21 09:06:09;;;;;;;4.73;4.30;;;18.50;99.90;;;;;;5008167;28;20497;-75
2021/09/21 09:08:41;;;;;;;5.63;5.00;;;18.70;99.90;;;;;;5007952;28;20468;-76
2021/09/21 09:11:14;;;;;;;4.80;4.40;;;18.90;99.90;;;;;;5011222;28;20489;-76
2021/09/21 09:13:42;;;;;;;5.30;4.47;;;19.00;99.90;;;;;;5006484;28;20821;-76
2021/09/21 09:16:17;;;;;;;4.57;4.17;;;19.10;99.90;;;;;;5007453;28;21011;-77
2021/09/21 09:18:49;;;;;;;5.77;5.23;;;19.20;99.90;;;;;;5008187;28;20949;-76
2021/09/21 09:21:18;;;;;;;5.23;3.50;;;19.20;99.90;;;;;;5009225;28;20583;-78
2021/09/21 09:23:49;;;;;;;4.33;4.03;;;19.30;99.90;;;;;;5010276;28;20473;-77
2021/09/21 09:26:22;;;;;;;5.07;4.57;;;19.30;99.90;;;;;;5002960;28;20511;-76
2021/09/21 09:28:52;;;;;;;5.27;4.50;;;19.40;99.90;;;;;;5008250;28;20538;-77
2021/09/21 09:31:27;;;;;;;3.23;3.00;;;19.40;99.90;;;;;;5007585;28;20532;-76
2021/09/21 09:34:05;;;;;;;4.93;3.93;;;19.30;99.90;;;;;;5007255;28;20454;-76
2021/09/21 09:36:49;;;;;;;4.93;3.73;;;19.40;99.90;;;;;;5010163;28;21115;-78
2021/09/21 09:39:19;;;;;;;4.63;4.30;;;19.50;99.90;;;;;;5010034;28;20462;-77
2021/09/21 09:41:50;;;;;;;3.50;3.17;;;19.60;99.90;;;;;;5007154;28;20608;-78
2021/09/21 09:44:20;;;;;;;3.77;3.50;;;19.80;99.90;;;;;;5005392;28;20483;-78
2021/09/21 09:46:55;;;;;;;4.70;3.80;;;19.90;99.90;;;;;;5005994;28;20454;-77
2021/09/21 09:49:25;;;;;;;3.70;3.40;;;20.00;99.90;;;;;;5009862;28;20516;-77
2021/09/21 09:51:56;;;;;;;4.30;3.77;;;20.10;99.90;;;;;;5008896;28;20541;-77
2021/09/21 09:54:24;;;;;;;4.57;4.07;;;20.10;99.90;;;;;;5008573;28;20461;-76
2021/09/21 09:56:52;;;;;;;4.57;4.17;;;20.10;99.90;;;;;;5009094;28;20457;-78
2021/09/21 09:59:22;;;;;;;4.60;4.30;;;20.20;99.90;;;;;;5003191;28;21260;-76
2021/09/21 10:01:53;;;;;;;5.80;4.97;;;20.20;99.90;;;;;;5009788;28;20525;-78
2021/09/21 10:04:22;;;;;;;4.20;3.80;;;20.20;99.90;;;;;;5013918;28;20487;-78
2021/09/21 10:06:51;;;;;;;4.50;4.10;;;20.20;99.90;;;;;;5012217;28;20510;-78
2021/09/21 10:09:19;;;;;;;4.80;4.40;;;20.40;99.90;;;;;;5011206;28;20458;-74
2021/09/21 10:11:51;;;;;;;4.27;3.97;;;20.70;99.90;;;;;;5008681;28;20245;-72
2021/09/21 10:14:21;;;;;;;3.80;3.53;;;20.80;99.90;;;;;;5010850;28;20802;-74
2021/09/21 10:16:55;;;;;;;4.50;4.10;;;20.90;99.90;;;;;;5009556;28;20516;-73
2021/09/21 10:19:25;;;;;;;4.80;4.43;;;20.90;99.90;;;;;;5003959;28;20781;-78
2021/09/21 10:21:55;;;;;;;4.80;4.40;;;21.00;99.90;;;;;;5003588;28;20787;-79
2021/09/21 10:24:36;;;;;;;4.30;3.90;;;20.90;99.90;;;;;;5009847;28;20540;-79
2021/09/21 10:27:07;;;;;;;4.00;3.70;;;20.90;99.90;;;;;;5011356;28;20559;-77
2021/09/21 10:29:35;;;;;;;4.60;4.20;;;20.80;99.90;;;;;;5010692;28;20453;-80
2021/09/21 10:32:12;;;;;;;5.03;4.53;;;20.70;99.90;;;;;;5010885;28;20532;-77
2021/09/21 10:34:42;;;;;;;4.83;4.40;;;20.60;99.90;;;;;;5010604;28;20585;-79
2021/09/21 10:37:11;;;;;;;5.00;4.50;;;20.60;99.90;;;;;;5011034;28;20460;-79
2021/09/21 10:39:40;;;;;;;4.20;3.90;;;20.70;99.90;;;;;;5010341;28;20460;-79
2021/09/21 10:42:09;;;;;;;4.30;4.00;;;20.80;99.90;;;;;;5008804;28;20464;-79
2021/09/21 10:44:49;;;;;;;3.90;3.60;;;20.90;99.90;;;;;;5010463;28;20483;-78
2021/09/21 10:47:23;;;;;;;4.83;3.83;;;20.90;99.90;;;;;;5010541;28;20452;-78
2021/09/21 10:50:08;;;;;;;4.37;4.00;;;20.90;99.90;;;;;;5009050;28;20559;-78
2021/09/21 10:52:36;;;;;;;4.43;4.10;;;21.00;99.90;;;;;;5008968;28;20472;-79
2021/09/21 10:55:07;;;;;;;5.30;3.77;;;21.10;99.90;;;;;;5008688;28;20457;-79
2021/09/21 10:57:38;;;;;;;4.70;4.30;;;21.30;99.90;;;;;;4991851;28;20491;-79
2021/09/21 11:00:09;;;;;;;5.00;4.60;;;21.50;99.90;;;;;;5005901;28;20880;-79
2021/09/21 11:02:41;;;;;;;4.83;4.43;;;21.40;99.90;;;;;;5008467;28;20514;-78
2021/09/21 11:05:15;;;;;;;5.13;4.63;;;21.40;99.90;;;;;;5006211;28;20458;-79
2021/09/21 11:07:49;;;;;;;5.37;4.33;;;21.40;99.90;;;;;;5006648;28;20479;-79
2021/09/21 11:10:18;;;;;;;4.60;4.20;;;21.10;99.90;;;;;;5009248;28;20866;-79
2021/09/21 11:12:48;;;;;;;3.90;3.60;;;20.90;99.90;;;;;;5007789;28;20484;-79
2021/09/21 11:15:17;;;;;;;3.90;3.60;;;21.00;99.90;;;;;;5009574;28;20445;-80
2021/09/21 11:17:47;;;;;;;4.20;3.80;;;21.00;99.90;;;;;;5007235;28;20496;-80
2021/09/21 11:20:16;;;;;;;7.93;3.90;;;21.10;99.90;;;;;;5003858;28;20805;-79
2021/09/21 11:22:49;;;;;;;5.30;4.73;;;21.20;99.90;;;;;;5008919;28;20552;-79
2021/09/21 11:25:17;;;;;;;4.13;3.73;;;21.10;99.90;;;;;;5006811;28;20484;-80
2021/09/21 11:27:46;;;;;;;5.30;4.40;;;21.00;99.90;;;;;;5009096;28;20496;-79
2021/09/21 11:30:17;;;;;;;5.20;4.27;;;20.90;99.90;;;;;;5003447;28;20983;-78
2021/09/21 11:32:47;;;;;;;5.10;4.57;;;20.80;99.90;;;;;;5008826;28;20480;-81
2021/09/21 11:35:17;;;;;;;4.10;3.80;;;20.70;99.90;;;;;;5008122;28;20507;-77
2021/09/21 11:37:47;;;;;;;4.37;3.97;;;20.50;99.90;;;;;;5008546;28;20447;-78
2021/09/21 11:40:27;;;;;;;4.40;4.00;;;20.50;99.90;;;;;;5009217;28;20928;-79
2021/09/21 11:42:56;;;;;;;4.50;4.10;;;20.40;99.90;;;;;;5002235;28;20491;-78
2021/09/21 11:45:24;;;;;;;5.10;4.60;;;20.40;99.90;;;;;;5006501;28;20492;-79
2021/09/21 11:47:54;;;;;;;4.90;4.50;;;20.30;99.90;;;;;;5008297;28;20475;-79
2021/09/21 11:50:25;;;;;;;4.47;4.07;;;20.30;99.90;;;;;;5009129;28;20496;-79
2021/09/21 11:52:55;;;;;;;4.20;3.80;;;20.30;99.90;;;;;;5001885;28;20876;-78
2021/09/21 11:55:41;;;;;;;4.57;3.60;;;20.30;99.90;;;;;;5013635;28;20453;-79
2021/09/21 11:58:11;;;;;;;4.60;4.10;;;20.30;99.90;;;;;;5010027;28;20473;-78
2021/09/21 12:00:41;;;;;;;4.13;3.73;;;20.30;99.90;;;;;;5012508;28;20454;-78
2021/09/21 12:03:12;;;;;;;4.63;4.17;;;20.20;99.90;;;;;;5010680;28;20543;-78
2021/09/21 12:05:43;;;;;;;4.20;3.90;;;20.30;99.90;;;;;;5012019;28;20523;-79
2021/09/21 12:08:14;;;;;;;4.47;3.93;;;20.40;99.90;;;;;;5011625;28;20453;-79
2021/09/21 12:10:44;;;;;;;7.20;4.63;;;20.40;99.90;;;;;;5010545;28;20484;-79
2021/09/21 12:13:16;;;;;;;4.73;4.23;;;20.40;99.90;;;;;;5007862;28;20992;-79
2021/09/21 12:15:45;;;;;;;5.13;4.10;;;20.40;99.90;;;;;;5010777;28;20457;-78
2021/09/21 12:18:15;;;;;;;4.70;4.10;;;20.50;99.90;;;;;;5011629;28;20462;-80
2021/09/21 12:20:50;;;;;;;4.37;3.97;;;20.50;99.90;;;;;;5011528;28;20456;-78
2021/09/21 12:23:22;;;;;;;3.90;3.60;;;20.50;99.90;;;;;;5011975;28;20446;-78
2021/09/21 12:25:53;;;;;;;4.13;3.83;;;20.40;99.90;;;;;;5009660;28;20812;-78
2021/09/21 12:28:24;;;;;;;5.33;4.83;;;20.50;99.90;;;;;;5011535;28;20454;-77
2021/09/21 12:30:53;;;;;;;4.67;4.27;;;20.40;99.90;;;;;;5007742;28;20469;-76
2021/09/21 12:33:22;;;;;;;4.97;4.47;;;20.40;99.90;;;;;;5013297;28;20455;-77
2021/09/21 12:35:53;;;;;;;4.60;4.20;;;20.40;99.90;;;;;;5011809;28;20508;-77
2021/09/21 12:38:23;;;;;;;4.70;4.30;;;20.50;99.90;;;;;;5011180;28;20890;-79
2021/09/21 12:40:55;;;;;;;4.80;4.40;;;20.60;99.90;;;;;;5010436;28;20487;-78
2021/09/21 12:43:26;;;;;;;4.63;3.90;;;20.70;99.90;;;;;;5011177;28;20809;-77
2021/09/21 12:45:56;;;;;;;4.60;4.20;;;20.70;99.90;;;;;;5009897;28;20489;-78
2021/09/21 12:48:29;;;;;;;6.07;4.87;;;20.70;99.90;;;;;;5012598;28;20532;-77
2021/09/21 12:50:59;;;;;;;5.17;4.73;;;20.60;99.90;;;;;;5006108;28;21021;-76
2021/09/21 12:53:29;;;;;;;4.37;3.97;;;20.70;99.90;;;;;;5009631;28;20981;-77
2021/09/21 12:55:59;;;;;;;5.53;4.83;;;20.80;99.90;;;;;;5010092;28;20955;-77
2021/09/21 12:58:33;;;;;;;5.70;4.13;;;20.90;99.90;;;;;;5008712;28;20984;-76
2021/09/21 13:01:02;;;;;;;7.03;4.90;;;20.90;99.90;;;;;;5008459;28;20463;-77
2021/09/21 13:03:33;;;;;;;5.47;4.97;;;20.90;99.90;;;;;;5016478;28;20974;-78
2021/09/21 13:06:01;;;;;;;5.87;4.53;;;20.80;99.90;;;;;;5010781;28;20486;-79
2021/09/21 13:08:30;;;;;;;4.83;4.27;;;20.80;99.90;;;;;;5011434;28;20895;-78